Time;durP1;ratioP1;P1;durP2;ratioP2;P2;SDS_P1;SDS_P2;PMS_P1;PMS_P2;Temp;Humidity;BMP_temperature;BMP_pressure;BME280_temperature;BME280_humidity;BME280_pressure;Samples;Min_cycle;Max_cycle;Signal;HPM_P1;HPM_P2
2023/06/29 00:01:03;;;;;;;5.28;3.55;;;;;;;19.65;81.70;101551.78;5092367;28;20456;-81
2023/06/29 00:03:29;;;;;;;5.87;3.50;;;;;;;19.62;81.66;101551.94;5092182;28;20101;-80
2023/06/29 00:05:55;;;;;;;5.55;3.45;;;;;;;19.56;81.98;101545.16;5093209;28;20301;-81
2023/06/29 00:08:24;;;;;;;5.22;3.55;;;;;;;19.62;81.71;101556.31;5092022;28;20055;-81
2023/06/29 00:10:51;;;;;;;4.47;3.33;;;;;;;19.58;81.97;101545.06;5093097;28;20388;-81
2023/06/29 00:13:17;;;;;;;5.75;3.45;;;;;;;19.60;82.18;101541.44;5092879;28;20047;-81
2023/06/29 00:15:42;;;;;;;5.57;3.40;;;;;;;19.57;82.13;101541.59;5092598;28;20436;-80
2023/06/29 00:18:09;;;;;;;5.27;3.50;;;;;;;19.61;82.20;101542.31;5092939;28;20039;-80
2023/06/29 00:20:35;;;;;;;5.78;3.78;;;;;;;19.59;82.19;101538.88;5093086;28;20478;-80
2023/06/29 00:23:00;;;;;;;5.63;3.78;;;;;;;19.59;82.32;101536.25;5092084;28;20070;-81
2023/06/29 00:25:26;;;;;;;5.90;3.60;;;;;;;19.59;82.60;101534.47;5092705;28;20020;-80
2023/06/29 00:27:51;;;;;;;6.93;3.83;;;;;;;19.58;82.39;101532.78;5092856;28;20396;-80
2023/06/29 00:30:17;;;;;;;5.43;3.63;;;;;;;19.57;82.50;101524.94;5091866;28;20468;-80
2023/06/29 00:32:43;;;;;;;5.72;3.70;;;;;;;19.56;82.70;101526.72;5092640;28;20039;-80
2023/06/29 00:35:08;;;;;;;6.27;4.00;;;;;;;19.53;82.87;101524.22;5092660;28;20099;-80
2023/06/29 00:37:33;;;;;;;5.03;3.40;;;;;;;19.51;82.50;101519.94;5091920;28;20399;-80
2023/06/29 00:39:59;;;;;;;5.80;3.70;;;;;;;19.53;82.89;101523.38;5092897;28;20056;-80
2023/06/29 00:42:24;;;;;;;5.30;3.43;;;;;;;19.50;83.43;101519.06;5094613;28;20921;-80
2023/06/29 00:44:50;;;;;;;4.50;3.23;;;;;;;19.47;82.91;101516.59;5096525;28;20503;-80
2023/06/29 00:47:15;;;;;;;4.72;3.33;;;;;;;19.47;83.08;101516.59;5096574;28;20475;-80
2023/06/29 00:49:41;;;;;;;5.43;3.67;;;;;;;19.46;83.21;101517.50;5095781;28;20147;-80
2023/06/29 00:52:07;;;;;;;4.78;3.30;;;;;;;19.44;83.19;101522.81;5096544;28;20166;-80
2023/06/29 00:54:32;;;;;;;5.67;3.57;;;;;;;19.44;83.14;101519.34;5096473;28;20047;-80
2023/06/29 00:56:58;;;;;;;5.20;3.60;;;;;;;19.44;83.79;101524.59;5095568;28;20274;-80
2023/06/29 00:59:24;;;;;;;4.07;3.20;;;;;;;19.35;83.33;101502.16;5096714;28;20020;-80
2023/06/29 01:01:52;;;;;;;5.13;3.45;;;;;;;19.42;83.75;101513.28;5096774;28;20028;-80
2023/06/29 01:04:22;;;;;;;4.68;3.05;;;;;;;19.41;84.05;101508.94;5095259;28;20379;-80
2023/06/29 01:07:06;;;;;;;4.40;3.03;;;;;;;19.37;83.59;101505.56;5096529;28;20016;-80
2023/06/29 01:09:34;;;;;;;5.10;3.38;;;;;;;19.36;83.73;101503.84;5096253;28;20548;-80
2023/06/29 01:12:01;;;;;;;4.75;3.35;;;;;;;19.35;83.85;101496.03;5094472;28;20100;-80
2023/06/29 01:14:30;;;;;;;5.07;3.50;;;;;;;19.35;83.92;101496.88;5095910;28;20583;-80
2023/06/29 01:16:57;;;;;;;4.50;3.30;;;;;;;19.37;83.73;101499.44;5096466;28;20028;-80
2023/06/29 01:19:28;;;;;;;4.57;3.03;;;;;;;19.34;84.25;101494.31;5095400;28;20408;-80
2023/06/29 01:22:08;;;;;;;4.68;3.17;;;;;;;19.34;84.07;101499.59;5096354;28;20024;-80
2023/06/29 01:24:38;;;;;;;5.00;3.28;;;;;;;19.35;84.10;101498.66;5094962;28;20028;-80
2023/06/29 01:27:08;;;;;;;4.28;3.13;;;;;;;19.35;83.97;101496.88;5096229;28;20043;-80
2023/06/29 01:29:33;;;;;;;4.18;3.10;;;;;;;19.34;84.48;101492.53;5095868;28;20028;-80
2023/06/29 01:32:03;;;;;;;4.00;2.90;;;;;;;19.33;84.31;101492.63;5094978;28;20027;-80
2023/06/29 01:34:30;;;;;;;5.07;3.03;;;;;;;19.33;84.16;101496.09;5095231;28;20111;-80
2023/06/29 01:37:02;;;;;;;4.63;3.10;;;;;;;19.33;84.10;101496.09;5095772;28;20384;-81
2023/06/29 01:39:32;;;;;;;4.25;2.95;;;;;;;19.31;84.50;101487.38;5095365;28;20021;-81
2023/06/29 01:41:59;;;;;;;4.38;2.78;;;;;;;19.31;84.47;101486.56;5095679;28;20035;-81
2023/06/29 01:44:25;;;;;;;3.72;2.63;;;;;;;19.23;85.37;101471.06;5094860;28;20044;-81
2023/06/29 01:46:52;;;;;;;3.53;2.80;;;;;;;19.28;84.67;101483.13;5094925;28;20051;-80
2023/06/29 01:49:17;;;;;;;3.97;3.00;;;;;;;19.27;84.69;101483.19;5095031;28;20486;-80
2023/06/29 01:51:42;;;;;;;4.07;2.90;;;;;;;19.24;84.60;101473.66;5095797;28;20024;-80
2023/06/29 01:54:08;;;;;;;4.73;3.10;;;;;;;19.22;84.44;101472.88;5093759;28;20439;-81
2023/06/29 01:56:34;;;;;;;4.32;2.90;;;;;;;19.25;84.84;101483.25;5095341;28;20027;-81
2023/06/29 01:59:01;;;;;;;3.90;2.97;;;;;;;19.22;84.64;101470.22;5095381;28;20125;-81
2023/06/29 02:01:27;;;;;;;4.55;3.15;;;;;;;19.18;84.34;101471.28;5094305;28;20040;-80
2023/06/29 02:03:52;;;;;;;3.70;2.92;;;;;;;19.23;84.86;101479.84;5095378;28;20020;-80
2023/06/29 02:06:18;;;;;;;4.30;3.03;;;;;;;19.23;84.50;101478.97;5095108;28;20020;-80
2023/06/29 02:08:44;;;;;;;4.40;3.00;;;;;;;19.25;84.93;101479.78;5094638;28;20376;-81
2023/06/29 02:11:09;;;;;;;;;;;;;;;19.26;84.96;101474.44;5095393;28;20016;-80
2023/06/29 02:13:35;;;;;;;4.53;3.10;;;;;;;19.25;84.90;101471.88;5095227;28;19938;-80
2023/06/29 02:16:00;;;;;;;4.33;3.23;;;;;;;19.23;84.59;101465.81;5094578;28;20030;-81
2023/06/29 02:18:25;;;;;;;5.10;3.43;;;;;;;19.21;85.53;101463.25;5094691;28;20060;-81
2023/06/29 02:20:51;;;;;;;3.63;2.80;;;;;;;19.22;85.92;101469.38;5094515;28;20036;-81
2023/06/29 02:23:16;;;;;;;3.80;3.00;;;;;;;19.18;86.62;101463.38;5094726;28;20032;-81
2023/06/29 02:25:41;;;;;;;4.50;3.20;;;;;;;19.12;85.59;101453.97;5095099;28;20028;-80
2023/06/29 02:28:07;;;;;;;4.90;3.10;;;;;;;19.12;86.27;101456.59;5093894;28;20042;-81
2023/06/29 02:30:32;;;;;;;4.77;3.17;;;;;;;19.14;85.80;101456.53;5094871;28;20415;-80
2023/06/29 02:32:57;;;;;;;5.07;3.30;;;;;;;19.14;85.47;101457.41;5094831;28;20495;-80
2023/06/29 02:35:23;;;;;;;5.10;3.40;;;;;;;19.16;85.54;101456.47;5093980;28;20491;-81
2023/06/29 02:37:48;;;;;;;5.07;3.30;;;;;;;19.17;85.03;101459.03;5094251;28;20500;-81
2023/06/29 02:40:16;;;;;;;3.97;3.00;;;;;;;19.13;85.59;101452.22;5094163;28;20187;-80
2023/06/29 02:42:41;;;;;;;4.72;3.05;;;;;;;19.14;85.40;101456.53;5093715;28;20522;-80
2023/06/29 02:45:07;;;;;;;4.13;2.93;;;;;;;19.13;87.11;101452.22;5094122;28;20036;-80
2023/06/29 02:47:32;;;;;;;3.47;2.60;;;;;;;19.10;86.59;101449.69;5094277;28;20384;-80
2023/06/29 02:49:59;;;;;;;4.13;2.90;;;;;;;19.06;87.48;101443.72;5093486;28;20081;-80
2023/06/29 02:52:25;;;;;;;4.28;2.70;;;;;;;19.07;87.03;101440.16;5094044;28;20039;-80
2023/06/29 02:54:50;;;;;;;4.27;2.70;;;;;;;19.06;86.65;101443.72;5094478;28;20024;-81
2023/06/29 02:57:15;;;;;;;3.93;2.80;;;;;;;19.07;87.55;101439.28;5092964;28;20395;-80
2023/06/29 02:59:41;;;;;;;3.73;2.80;;;;;;;19.06;86.71;101445.47;5094439;28;20035;-81
2023/06/29 03:02:06;;;;;;;2.90;2.50;;;;;;;19.03;87.10;101437.72;5093763;28;20038;-80
2023/06/29 03:04:31;;;;;;;4.03;2.90;;;;;;;19.03;86.77;101433.31;5093563;28;20020;-81
2023/06/29 03:06:57;;;;;;;4.17;2.70;;;;;;;19.05;86.93;101436.72;5094087;28;20085;-81
2023/06/29 03:09:22;;;;;;;3.63;2.73;;;;;;;19.06;86.64;101438.44;5093863;28;20107;-81
2023/06/29 03:11:47;;;;;;;4.03;2.73;;;;;;;19.06;86.99;101441.09;5092621;28;20066;-80
2023/06/29 03:14:12;;;;;;;3.43;2.77;;;;;;;19.04;86.86;101434.16;5093762;28;20119;-80
2023/06/29 03:16:38;;;;;;;4.23;3.00;;;;;;;19.04;86.58;101434.16;5093976;28;20060;-81
2023/06/29 03:19:04;;;;;;;3.93;2.80;;;;;;;19.06;87.15;101433.19;5093218;28;20046;-81
2023/06/29 03:21:29;;;;;;;3.30;2.70;;;;;;;19.08;87.30;101438.38;5093956;28;20304;-81
2023/06/29 03:23:54;;;;;;;4.47;2.97;;;;;;;19.08;86.78;101433.94;5093677;28;20020;-81
2023/06/29 03:26:19;;;;;;;4.60;3.00;;;;;;;19.08;86.85;101439.22;5092802;28;20388;-81
2023/06/29 03:28:45;;;;;;;4.33;3.10;;;;;;;19.09;86.89;101433.03;5093709;28;20120;-81
2023/06/29 03:31:10;;;;;;;3.70;2.87;;;;;;;19.07;86.64;101432.28;5092655;28;20020;-81
2023/06/29 03:33:35;;;;;;;5.37;3.33;;;;;;;19.07;86.55;101423.50;5093641;28;20025;-81
2023/06/29 03:36:01;;;;;;;4.03;3.10;;;;;;;19.07;86.09;101420.88;5093558;28;20046;-81
2023/06/29 03:38:26;;;;;;;5.00;3.10;;;;;;;19.09;86.80;101419.03;5091888;28;20044;-81
2023/06/29 03:40:51;;;;;;;5.67;3.20;;;;;;;19.10;86.54;101429.50;5093343;28;20533;-81
2023/06/29 03:43:16;;;;;;;3.73;2.67;;;;;;;19.09;86.81;101424.31;5092753;28;20054;-81
2023/06/29 03:45:42;;;;;;;6.93;3.77;;;;;;;19.08;86.98;101425.22;5092528;28;20406;-81
2023/06/29 03:48:07;;;;;;;6.13;3.50;;;;;;;19.03;86.69;101420.16;5093140;28;20033;-81
2023/06/29 03:50:33;;;;;;;5.50;3.40;;;;;;;19.07;86.87;101428.78;5093544;28;20024;-80
2023/06/29 03:52:58;;;;;;;4.70;3.20;;;;;;;19.06;87.17;101427.94;5092856;28;20016;-81
2023/06/29 03:55:26;;;;;;;5.53;3.23;;;;;;;19.06;86.84;101421.78;5092667;28;20028;-80
2023/06/29 03:57:51;;;;;;;4.68;2.95;;;;;;;19.07;86.78;101423.50;5093404;28;20045;-80
2023/06/29 04:00:17;;;;;;;4.20;2.90;;;;;;;19.07;86.75;101420.88;5092064;28;20102;-80
2023/06/29 04:02:42;;;;;;;4.27;2.90;;;;;;;19.09;86.53;101421.69;5093237;28;20052;-81
2023/06/29 04:05:08;;;;;;;4.60;2.93;;;;;;;19.07;86.54;101410.34;5092616;28;20035;-80
2023/06/29 04:07:34;;;;;;;7.10;3.83;;;;;;;19.11;88.25;101409.31;5092288;28;20035;-80
2023/06/29 04:10:00;;;;;;;4.67;3.20;;;;;;;19.08;87.26;101404.19;5093225;28;20028;-81
2023/06/29 04:12:25;;;;;;;5.23;3.40;;;;;;;19.09;88.33;101409.38;5092675;28;20040;-80
2023/06/29 04:14:50;;;;;;;7.23;4.10;;;;;;;19.08;88.67;101410.28;5092258;28;20111;-81
2023/06/29 04:17:15;;;;;;;6.00;3.70;;;;;;;19.09;88.11;101406.72;5092246;28;20067;-80
2023/06/29 04:19:41;;;;;;;5.63;3.57;;;;;;;19.09;87.41;101398.84;5092920;28;20031;-81
2023/06/29 04:22:06;;;;;;;5.43;3.37;;;;;;;19.09;87.69;101395.38;5092478;28;20028;-80
2023/06/29 04:24:32;;;;;;;5.20;3.10;;;;;;;19.12;87.64;101401.34;5093058;28;20103;-81
2023/06/29 04:26:57;;;;;;;3.60;2.67;;;;;;;19.13;87.65;101402.22;5092873;28;20032;-80
2023/06/29 04:29:22;;;;;;;3.97;2.97;;;;;;;19.11;87.32;101396.16;5091690;28;20044;-80
2023/06/29 04:31:48;;;;;;;4.17;2.90;;;;;;;19.12;87.24;101389.97;5091538;28;20044;-81
2023/06/29 04:34:17;;;;;;;3.73;2.70;;;;;;;19.16;87.25;101396.81;5092671;28;20028;-80
2023/06/29 04:36:45;;;;;;;3.28;2.50;;;;;;;19.19;87.58;101396.69;5092144;28;20479;-80
2023/06/29 04:39:11;;;;;;;3.85;2.80;;;;;;;19.16;88.02;101393.34;5092308;28;20048;-79
2023/06/29 04:41:36;;;;;;;4.43;3.00;;;;;;;19.21;89.13;101399.22;5092389;28;20085;-79
2023/06/29 04:44:03;;;;;;;5.67;2.83;;;;;;;19.19;87.65;101396.69;5092832;28;20278;-80
2023/06/29 04:46:28;;;;;;;4.00;2.90;;;;;;;19.21;87.27;101394.84;5092419;28;20104;-79
2023/06/29 04:48:54;;;;;;;4.17;2.70;;;;;;;19.18;87.33;101380.97;5091442;28;20074;-79
2023/06/29 04:51:19;;;;;;;3.75;2.70;;;;;;;19.25;87.65;101391.16;5092625;28;20027;-79
2023/06/29 04:53:45;;;;;;;4.40;2.77;;;;;;;19.26;87.50;101381.50;5092780;28;20099;-79
2023/06/29 04:56:10;;;;;;;4.73;2.77;;;;;;;19.29;87.87;101390.09;5091623;28;20024;-79
2023/06/29 04:58:36;;;;;;;4.50;3.00;;;;;;;19.32;89.20;101389.09;5092651;28;20024;-79
2023/06/29 05:01:01;;;;;;;4.93;3.00;;;;;;;19.33;87.98;101393.44;5092599;28;20075;-79
2023/06/29 05:03:27;;;;;;;6.67;3.90;;;;;;;19.35;88.82;101390.78;5091002;28;20070;-79
2023/06/29 05:05:52;;;;;;;5.40;3.30;;;;;;;19.34;87.84;101391.69;5092372;28;20472;-79
2023/06/29 05:08:18;;;;;;;7.33;4.23;;;;;;;19.34;88.71;101389.91;5091529;28;20032;-79
2023/06/29 05:10:43;;;;;;;7.43;4.23;;;;;;;19.38;88.55;101388.84;5091365;28;20036;-79
2023/06/29 05:13:09;;;;;;;6.10;3.90;;;;;;;19.40;89.94;101391.41;5092072;28;20028;-79
2023/06/29 05:15:34;;;;;;;9.50;4.73;;;;;;;19.38;90.08;101390.63;5092418;28;20437;-80
2023/06/29 05:17:59;;;;;;;7.80;4.33;;;;;;;19.39;88.64;101389.69;5091176;28;20438;-78
2023/06/29 05:20:24;;;;;;;7.87;4.63;;;;;;;19.39;88.59;101390.56;5091471;28;20074;-80
2023/06/29 05:22:50;;;;;;;8.60;4.40;;;;;;;19.42;88.88;101381.66;5092430;28;20024;-81
2023/06/29 05:25:15;;;;;;;8.60;4.60;;;;;;;19.47;89.25;101389.38;5091426;28;20023;-81
2023/06/29 05:27:41;;;;;;;10.80;5.63;;;;;;;19.47;90.77;101379.72;5092385;28;20021;-81
2023/06/29 05:30:10;;;;;;;12.43;6.00;;;;;;;19.48;89.34;101386.66;5095505;28;20043;-81
2023/06/29 05:32:36;;;;;;;15.45;7.63;;;;;;;19.47;90.09;101376.19;5095186;28;20024;-81
2023/06/29 05:35:02;;;;;;;11.85;6.20;;;;;;;19.49;88.75;101385.72;5095562;28;20020;-81
2023/06/29 05:37:29;;;;;;;10.63;5.82;;;;;;;19.49;89.38;101384.88;5094959;28;20040;-81
2023/06/29 05:39:56;;;;;;;11.60;6.03;;;;;;;19.51;90.02;101381.25;5094830;28;20039;-81
2023/06/29 05:42:21;;;;;;;12.13;6.30;;;;;;;19.43;89.97;101370.22;5095578;28;20431;-81
2023/06/29 05:44:46;;;;;;;11.77;5.97;;;;;;;19.51;89.11;101383.88;5095256;28;20130;-81
2023/06/29 05:47:12;;;;;;;11.60;5.60;;;;;;;19.56;88.29;101368.75;5095430;28;20122;-81
2023/06/29 05:49:37;;;;;;;10.53;5.27;;;;;;;19.59;89.28;101362.50;5095272;28;20029;-83
2023/06/29 05:52:03;;;;;;;8.80;4.80;;;;;;;19.65;89.80;101374.53;5095005;28;20047;-81
2023/06/29 05:54:28;;;;;;;17.43;8.60;;;;;;;19.64;89.18;101375.44;5095632;28;20139;-82
2023/06/29 05:56:53;;;;;;;19.07;9.30;;;;;;;19.64;89.33;101372.81;5095132;28;20031;-80
2023/06/29 05:59:18;;;;;;;18.93;10.17;;;;;;;19.63;89.49;101368.47;5094294;28;20463;-79
2023/06/29 06:01:44;;;;;;;18.13;8.80;;;;;;;19.67;88.21;101372.69;5095504;28;20027;-79
2023/06/29 06:04:12;;;;;;;18.50;9.97;;;;;;;19.68;88.55;101372.59;5094922;28;20020;-78
2023/06/29 06:06:37;;;;;;;18.20;9.50;;;;;;;19.71;88.16;101371.59;5094526;28;20027;-78
2023/06/29 06:09:02;;;;;;;14.80;7.30;;;;;;;19.73;87.49;101375.03;5095201;28;20067;-78
2023/06/29 06:11:28;;;;;;;12.87;6.77;;;;;;;19.77;87.63;101371.34;5094651;28;20052;-78
2023/06/29 06:13:54;;;;;;;16.37;7.80;;;;;;;19.80;87.83;101373.84;5094224;28;20044;-75
2023/06/29 06:16:20;;;;;;;18.17;8.90;;;;;;;19.80;87.42;101371.22;5094602;28;20028;-76
2023/06/29 06:18:45;;;;;;;;;;;;;;;19.83;87.52;101373.69;5095119;28;20025;-76
2023/06/29 06:21:11;;;;;;;;;;;;;;;19.86;85.85;101370.09;5093848;28;19914;-76
2023/06/29 06:23:36;;;;;;;16.80;8.13;;;;;;;19.90;85.89;101364.63;5094867;28;20041;-75
2023/06/29 06:26:02;;;;;;;18.53;9.27;;;;;;;19.92;85.82;101367.16;5094865;28;20114;-76
2023/06/29 06:28:27;;;;;;;16.70;8.23;;;;;;;20.00;86.37;101374.72;5093900;28;20101;-76
2023/06/29 06:30:53;;;;;;;16.17;7.83;;;;;;;20.08;85.78;101380.47;5094938;28;20490;-79
2023/06/29 06:33:24;;;;;;;15.13;7.53;;;;;;;20.12;85.35;101368.88;5094433;28;20108;-79
2023/06/29 06:35:49;;;;;;;18.88;9.48;;;;;;;20.18;84.79;101375.66;5093737;28;20281;-79
2023/06/29 06:38:15;;;;;;;13.73;7.50;;;;;;;20.24;85.21;101369.22;5093683;28;20044;-79
2023/06/29 06:40:40;;;;;;;15.23;7.37;;;;;;;20.31;84.91;101368.00;5094192;28;20024;-79
2023/06/29 06:43:06;;;;;;;11.90;6.20;;;;;;;20.40;84.90;101377.25;5093222;28;20039;-79
2023/06/29 06:45:31;;;;;;;8.93;5.10;;;;;;;20.49;85.05;101380.28;5094409;28;20107;-79
2023/06/29 06:47:56;;;;;;;8.63;4.90;;;;;;;20.57;84.64;101374.63;5094492;28;20149;-79
2023/06/29 06:50:22;;;;;;;9.77;5.17;;;;;;;20.68;83.61;101379.38;5093473;28;20042;-79
2023/06/29 06:52:47;;;;;;;8.17;4.70;;;;;;;20.77;83.08;101380.75;5094269;28;20043;-79
2023/06/29 06:55:13;;;;;;;9.03;4.87;;;;;;;20.79;83.65;101379.75;5093309;28;20137;-79
2023/06/29 06:57:38;;;;;;;8.13;4.77;;;;;;;20.85;83.45;101370.66;5093673;28;20016;-78
2023/06/29 07:00:05;;;;;;;6.33;3.70;;;;;;;20.98;83.26;101373.53;5094373;28;20294;-79
2023/06/29 07:02:31;;;;;;;5.57;3.60;;;;;;;21.11;83.03;101371.13;5091931;28;20028;-79
2023/06/29 07:04:56;;;;;;;8.65;4.35;;;;;;;21.34;82.88;101363.78;5093597;28;20016;-79
2023/06/29 07:07:22;;;;;;;9.17;4.70;;;;;;;21.52;82.28;101361.97;5093572;28;20044;-79
2023/06/29 07:09:48;;;;;;;8.93;4.83;;;;;;;21.81;79.29;101370.16;5093316;28;20460;-79
2023/06/29 07:12:16;;;;;;;11.57;5.95;;;;;;;22.10;79.11;101371.19;5093493;28;20023;-80
2023/06/29 07:14:42;;;;;;;14.45;6.80;;;;;;;22.25;78.33;101360.66;5093608;28;20016;-79
2023/06/29 07:17:07;;;;;;;11.93;6.03;;;;;;;22.41;78.28;101361.53;5092895;28;20020;-79
2023/06/29 07:19:33;;;;;;;9.60;5.13;;;;;;;22.61;78.34;101368.34;5093802;28;20387;-79
2023/06/29 07:21:58;;;;;;;10.68;5.30;;;;;;;22.75;77.53;101375.47;5093782;28;20110;-79
2023/06/29 07:24:24;;;;;;;9.40;4.80;;;;;;;22.88;75.79;101364.16;5092698;28;20111;-79
2023/06/29 07:26:49;;;;;;;9.83;5.13;;;;;;;23.01;75.41;101366.91;5093552;28;20448;-79
2023/06/29 07:29:15;;;;;;;12.55;6.03;;;;;;;23.14;76.42;101368.72;5093119;28;20024;-79
2023/06/29 07:31:40;;;;;;;9.48;5.18;;;;;;;23.36;76.05;101375.41;5092913;28;20024;-80
2023/06/29 07:34:07;;;;;;;13.07;6.63;;;;;;;23.49;72.35;101372.00;5093563;28;20024;-80
2023/06/29 07:36:34;;;;;;;13.02;6.40;;;;;;;23.54;73.63;101369.94;5093237;28;20024;-81
2023/06/29 07:39:03;;;;;;;11.38;6.18;;;;;;;23.64;73.80;101371.06;5092385;28;20059;-83
2023/06/29 07:41:28;;;;;;;12.75;6.82;;;;;;;23.68;68.00;101362.00;5093180;28;20463;-81
2023/06/29 07:43:57;;;;;;;15.20;7.47;;;;;;;23.69;71.12;101363.69;5093702;28;20099;-81
2023/06/29 07:46:23;;;;;;;12.00;6.38;;;;;;;23.68;73.14;101355.81;5092347;28;20081;-83
2023/06/29 07:48:49;;;;;;;15.48;7.75;;;;;;;23.72;70.77;101362.63;5093219;28;20055;-83
2023/06/29 07:51:14;;;;;;;16.70;8.10;;;;;;;23.60;71.23;101346.56;5093484;28;20088;-83
2023/06/29 07:53:41;;;;;;;14.73;7.17;;;;;;;23.71;71.29;101358.28;5092755;28;20107;-83
2023/06/29 07:56:06;;;;;;;13.68;6.68;;;;;;;23.90;71.76;101353.50;5092839;28;20028;-83
2023/06/29 07:58:32;;;;;;;13.80;7.00;;;;;;;24.16;70.38;101360.75;5092214;28;20392;-80
2023/06/29 08:00:57;;;;;;;12.17;6.30;;;;;;;24.44;70.73;101359.81;5093164;28;20035;-83
2023/06/29 08:03:23;;;;;;;10.95;6.07;;;;;;;24.65;70.01;101362.84;5092999;28;20072;-84
2023/06/29 08:05:50;;;;;;;12.38;6.90;;;;;;;24.72;67.05;101363.31;5092644;28;20447;-85
2023/06/29 08:08:16;;;;;;;13.85;7.18;;;;;;;24.58;65.55;101350.97;5093093;28;20460;-83
2023/06/29 08:10:41;;;;;;;13.20;6.50;;;;;;;24.49;67.91;101363.03;5093041;28;20031;-84
2023/06/29 08:13:08;;;;;;;12.40;6.28;;;;;;;24.35;65.97;101358.63;5092019;28;20047;-83
2023/06/29 08:15:34;;;;;;;13.32;7.05;;;;;;;24.18;65.24;101350.91;5092874;28;20081;-83
2023/06/29 08:17:59;;;;;;;12.50;6.50;;;;;;;24.06;67.82;101348.09;5092625;28;20039;-83
2023/06/29 08:20:24;;;;;;;10.83;5.73;;;;;;;23.97;68.43;101339.91;5091791;28;20032;-79
2023/06/29 08:22:49;;;;;;;12.33;6.10;;;;;;;24.02;67.98;101345.75;5093051;28;20456;-83
2023/06/29 08:25:15;;;;;;;10.70;5.73;;;;;;;24.04;69.06;101347.34;5092592;28;20032;-83
2023/06/29 08:27:41;;;;;;;11.13;5.95;;;;;;;24.08;68.86;101355.13;5092544;28;20077;-84
2023/06/29 08:30:08;;;;;;;10.05;5.43;;;;;;;24.09;66.35;101357.69;5092688;28;20422;-82
2023/06/29 08:32:33;;;;;;;14.15;6.88;;;;;;;24.07;67.13;101354.28;5092457;28;20063;-83
2023/06/29 08:34:58;;;;;;;11.57;6.00;;;;;;;24.18;67.76;101365.03;5092163;28;20421;-83
2023/06/29 08:37:24;;;;;;;11.33;5.83;;;;;;;24.20;66.59;101357.84;5092208;28;20044;-82
2023/06/29 08:39:49;;;;;;;11.77;6.00;;;;;;;24.24;66.66;101352.31;5093000;28;20032;-84
2023/06/29 08:42:14;;;;;;;13.03;6.77;;;;;;;24.23;66.89;101361.22;5092077;28;20566;-84
2023/06/29 08:44:40;;;;;;;15.73;7.70;;;;;;;24.19;63.71;101352.63;5092665;28;20016;-84
2023/06/29 08:47:06;;;;;;;14.30;7.37;;;;;;;24.10;63.32;101354.06;5092286;28;20278;-84
2023/06/29 08:49:33;;;;;;;;;;;;;;;24.17;66.76;101352.72;5092434;28;20103;-83
2023/06/29 08:52:02;;;;;;;13.68;6.72;;;;;;;24.24;66.45;101350.53;5092604;28;19951;-83
2023/06/29 08:54:29;;;;;;;11.32;5.88;;;;;;;24.34;67.20;101351.63;5092418;28;20069;-83
2023/06/29 08:56:54;;;;;;;12.15;6.22;;;;;;;24.50;67.23;101348.81;5091775;28;20024;-83
2023/06/29 08:59:21;;;;;;;11.50;6.10;;;;;;;24.64;67.03;101347.88;5092301;28;20028;-83
2023/06/29 09:01:46;;;;;;;;;;;;;;;24.91;67.24;101351.44;5093405;28;20282;-83
2023/06/29 09:04:12;;;;;;;11.35;5.85;;;;;;;25.14;66.58;101341.91;5096194;28;19919;-84
2023/06/29 09:06:40;;;;;;;11.37;5.70;;;;;;;25.40;64.15;101341.88;5096488;28;20016;-84
2023/06/29 09:09:09;;;;;;;11.02;5.70;;;;;;;25.62;64.85;101333.28;5095319;28;20400;-84
2023/06/29 09:11:35;;;;;;;15.43;7.97;;;;;;;25.85;61.28;101336.09;5095604;28;20384;-84
2023/06/29 09:14:06;;;;;;;15.50;8.00;;;;;;;25.90;60.01;101333.94;5096416;28;20077;-84
2023/06/29 09:16:34;;;;;;;14.25;7.18;;;;;;;25.94;62.01;101343.38;5095661;28;20020;-84
2023/06/29 09:19:00;;;;;;;13.40;7.07;;;;;;;25.99;60.72;101338.59;5095939;28;20032;-84
2023/06/29 09:21:26;;;;;;;13.05;6.85;;;;;;;25.98;61.47;101352.84;5094598;28;20028;-84
2023/06/29 09:23:55;;;;;;;11.90;6.47;;;;;;;25.92;58.65;101336.50;5095812;28;20027;-84
2023/06/29 09:26:23;;;;;;;12.80;6.60;;;;;;;25.85;61.99;101338.75;5095845;28;20043;-84
2023/06/29 09:28:48;;;;;;;16.65;8.20;;;;;;;25.80;61.68;101341.75;5096231;28;20028;-85
2023/06/29 09:31:14;;;;;;;17.33;9.13;;;;;;;25.71;58.32;101340.59;5095152;28;20031;-84
2023/06/29 09:33:39;;;;;;;16.23;7.80;;;;;;;25.61;59.32;101334.22;5096264;28;20027;-85
2023/06/29 09:36:07;;;;;;;14.83;7.53;;;;;;;25.47;60.61;101326.38;5096253;28;20180;-85
2023/06/29 09:38:32;;;;;;;14.68;7.28;;;;;;;25.43;62.07;101337.25;5084289;28;20040;-85
2023/06/29 09:41:18;;;;;;;14.75;7.45;;;;;;;25.34;60.92;101335.19;5088380;28;20043;-84
2023/06/29 09:43:44;;;;;;;;;;;;;;;25.24;61.90;101332.34;5095331;28;20040;-86
2023/06/29 09:46:12;;;;;;;14.98;7.65;;;;;;;25.18;60.63;101327.44;5094722;28;19916;-86
2023/06/29 09:48:47;;;;;;;14.48;7.30;;;;;;;25.14;61.20;101329.47;5095539;28;20020;-85
2023/06/29 09:51:23;;;;;;;11.95;6.10;;;;;;;25.13;60.70;101334.91;5094591;28;20046;-88
2023/06/29 09:53:48;;;;;;;11.52;5.95;;;;;;;25.13;61.58;101343.72;5095915;28;20024;-86
2023/06/29 09:56:16;;;;;;;12.18;6.03;;;;;;;25.12;61.71;101341.16;5095091;28;20027;-84
2023/06/29 09:58:42;;;;;;;9.30;5.20;;;;;;;25.11;62.58;101342.13;5095135;28;20032;-85
2023/06/29 10:01:09;;;;;;;10.15;5.47;;;;;;;25.11;61.65;101331.50;5094751;28;20070;-84
2023/06/29 10:03:35;;;;;;;10.80;5.57;;;;;;;25.12;62.38;101342.00;5084166;28;20472;-84
2023/06/29 10:06:15;;;;;;;10.30;5.73;;;;;;;25.08;61.17;101339.66;5091952;28;20034;-84
2023/06/29 10:08:42;;;;;;;11.05;5.72;;;;;;;25.05;62.72;101337.25;5095585;28;20031;-84
2023/06/29 10:11:07;;;;;;;13.68;6.70;;;;;;;25.02;62.05;101340.94;5095339;28;20036;-84
2023/06/29 10:13:38;;;;;;;12.52;6.13;;;;;;;25.06;61.09;101345.09;5094439;28;20024;-84
2023/06/29 10:16:08;;;;;;;12.02;6.10;;;;;;;25.12;63.47;101335.84;5095081;28;20111;-84
2023/06/29 10:18:39;;;;;;;10.30;5.55;;;;;;;25.20;63.13;101330.84;5095564;28;20024;-84
2023/06/29 10:21:07;;;;;;;12.85;6.60;;;;;;;25.22;61.92;101338.72;5094328;28;20031;-85
2023/06/29 10:23:34;;;;;;;12.23;6.25;;;;;;;25.19;61.17;101339.78;5095844;28;20460;-85
2023/06/29 10:26:01;;;;;;;12.48;6.40;;;;;;;25.19;62.56;101339.78;5094958;28;20035;-84
2023/06/29 10:28:27;;;;;;;18.00;9.40;;;;;;;25.08;55.48;101334.34;5094018;28;20641;-83
2023/06/29 10:30:58;;;;;;;17.40;9.05;;;;;;;25.08;60.92;101340.53;5095301;28;20032;-84
2023/06/29 10:33:23;;;;;;;17.80;9.00;;;;;;;25.10;59.68;101338.63;5093360;28;20021;-85
2023/06/29 10:35:57;;;;;;;16.15;7.95;;;;;;;25.16;60.07;101339.16;5094523;28;20032;-84
2023/06/29 10:38:30;;;;;;;16.60;8.50;;;;;;;25.09;59.49;101338.72;5093683;28;20052;-87
2023/06/29 10:40:55;;;;;;;14.77;7.45;;;;;;;25.05;60.41;101326.63;5099738;22;20375;-86
2023/06/29 10:43:21;;;;;;;16.97;8.40;;;;;;;25.02;59.81;101327.66;5095174;28;20028;-80
2023/06/29 10:45:46;;;;;;;16.23;8.40;;;;;;;24.98;61.04;101342.97;5094377;28;20028;-83
2023/06/29 10:48:16;;;;;;;14.53;7.17;;;;;;;25.00;61.43;101342.84;5093332;28;20460;-84
2023/06/29 10:50:47;;;;;;;13.10;6.57;;;;;;;25.00;60.75;101334.88;5094310;28;20024;-83
2023/06/29 10:53:16;;;;;;;13.05;6.47;;;;;;;25.00;61.33;101342.84;5092844;28;20032;-84
2023/06/29 10:55:43;;;;;;;11.23;6.05;;;;;;;25.01;60.84;101333.09;5093860;28;20073;-85
2023/06/29 10:58:19;;;;;;;11.90;6.15;;;;;;;25.00;61.50;101332.22;5094188;28;20491;-86
2023/06/29 11:00:45;;;;;;;;;;;;;;;24.95;59.37;101329.91;5094910;28;20024;-86
2023/06/29 11:03:12;;;;;;;15.13;7.35;;;;;;;24.91;60.76;101328.44;5093537;28;19916;-86
2023/06/29 11:05:38;;;;;;;14.35;6.95;;;;;;;24.92;61.91;101326.59;5094539;28;20048;-87
2023/06/29 11:08:06;;;;;;;13.77;6.97;;;;;;;25.00;61.48;101328.75;5094487;28;20028;-83
2023/06/29 11:10:32;;;;;;;14.55;7.28;;;;;;;24.97;58.34;101330.66;5093329;28;20039;-83
2023/06/29 11:13:09;;;;;;;15.35;7.75;;;;;;;24.90;59.78;101320.53;5093710;28;20064;-81
2023/06/29 11:15:35;;;;;;;18.38;8.73;;;;;;;24.93;58.58;101326.53;5093183;28;20026;-82
2023/06/29 11:18:06;;;;;;;16.17;8.65;;;;;;;24.97;59.06;101330.66;5090672;28;20397;-81
2023/06/29 11:20:36;;;;;;;17.05;8.60;;;;;;;24.97;59.45;101324.50;5091197;28;20020;-84